Time;durP1;ratioP1;P1;durP2;ratioP2;P2;SDS_P1;SDS_P2;PMS_P1;PMS_P2;Temp;Humidity;BMP_temperature;BMP_pressure;BME280_temperature;BME280_humidity;BME280_pressure;Samples;Min_cycle;Max_cycle;Signal;HPM_P1;HPM_P2
2021/12/11 00:01:38;;;;;;;51.92;23.85;;;;;;;0.41;96.77;100225.75;5044467;28;20119;-81
2021/12/11 00:04:07;;;;;;;45.75;23.50;;;;;;;0.32;97.57;100234.88;5045794;28;20041;-81
2021/12/11 00:06:38;;;;;;;47.72;24.55;;;;;;;0.28;97.50;100237.72;5045231;28;20483;-81
2021/12/11 00:09:19;;;;;;;48.42;23.50;;;;;;;0.29;97.47;100249.56;5042305;28;20044;-81
2021/12/11 00:11:51;;;;;;;54.00;25.08;;;;;;;0.32;97.66;100252.72;5028534;28;20032;-83
2021/12/11 00:14:17;;;;;;;58.20;24.63;;;;;;;0.27;97.63;100257.31;5045350;28;20128;-81
2021/12/11 00:16:43;;;;;;;51.47;25.27;;;;;;;0.19;98.18;100257.81;5045145;28;20043;-81
2021/12/11 00:19:13;;;;;;;52.33;23.73;;;;;;;0.27;98.34;100257.31;5048912;28;20493;-81
2021/12/11 00:21:40;;;;;;;51.30;25.13;;;;;;;0.27;98.36;100262.41;5044950;28;20078;-81
2021/12/11 00:24:11;;;;;;;55.17;26.17;;;;;;;0.25;98.29;100269.34;5044071;28;20052;-81
2021/12/11 00:26:47;;;;;;;50.45;24.52;;;;;;;0.27;98.35;100274.34;5028693;28;20106;-81
2021/12/11 00:29:14;;;;;;;50.10;25.08;;;;;;;0.23;98.25;100278.00;5044071;28;20041;-81
2021/12/11 00:31:49;;;;;;;50.50;24.48;;;;;;;0.25;98.54;100288.94;5043139;28;20167;-82
2021/12/11 00:34:17;;;;;;;51.53;26.02;;;;;;;0.25;98.64;100296.59;5022461;28;20036;-81
2021/12/11 00:37:01;;;;;;;56.58;25.73;;;;;;;0.20;98.51;100301.97;5025031;28;20025;-81
2021/12/11 00:39:29;;;;;;;55.90;26.02;;;;;;;0.21;98.99;100301.06;5042394;28;20041;-83
2021/12/11 00:41:58;;;;;;;53.85;25.88;;;;;;;0.18;98.95;100311.47;5029340;28;20024;-81
2021/12/11 00:44:42;;;;;;;52.33;24.80;;;;;;;0.15;99.20;100315.03;5048764;28;20070;-81
2021/12/11 00:47:21;;;;;;;49.85;24.80;;;;;;;0.10;99.09;100314.53;5024637;28;20052;-81
2021/12/11 00:49:56;;;;;;;56.00;25.63;;;;;;;0.08;99.69;100324.00;5044414;28;20072;-81
2021/12/11 00:52:32;;;;;;;56.65;24.73;;;;;;;0.18;99.18;100334.41;5045345;28;20509;-81
2021/12/11 00:55:00;;;;;;;58.40;25.98;;;;;;;0.14;98.98;100338.09;5020992;28;20037;-81
2021/12/11 00:57:26;;;;;;;51.38;23.98;;;;;;;0.11;99.48;100341.63;5027779;28;20122;-81
2021/12/11 01:00:09;;;;;;;49.53;24.73;;;;;;;0.02;99.48;100352.47;5025736;28;20024;-81
2021/12/11 01:02:35;;;;;;;52.33;24.35;;;;;;;-0.02;99.39;100356.94;5039142;28;20445;-81
2021/12/11 01:05:03;;;;;;;61.78;26.38;;;;;;;0.02;99.49;100360.09;5027689;28;20070;-80
2021/12/11 01:07:32;;;;;;;53.60;25.08;;;;;;;0.19;99.63;100361.56;5041540;28;20040;-83
2021/12/11 01:10:10;;;;;;;54.25;26.30;;;;;;;0.15;99.47;100372.84;5037656;28;20490;-84
2021/12/11 01:12:51;;;;;;;57.97;26.75;;;;;;;0.15;99.72;100383.06;5026604;28;20088;-81
2021/12/11 01:15:24;;;;;;;57.05;26.08;;;;;;;0.19;99.55;100385.31;5048077;28;20478;-81
2021/12/11 01:18:34;;;;;;;61.97;27.60;;;;;;;0.15;99.73;100393.25;5028345;28;20290;-81
2021/12/11 01:21:01;;;;;;;76.95;28.60;;;;;;;0.11;100.00;100399.47;5058936;28;20051;-81
2021/12/11 01:25:58;;;;;;;57.35;27.05;;;;;;;0.19;100.00;100417.66;5045869;28;20048;-81
2021/12/11 01:28:24;;;;;;;63.42;27.20;;;;;;;0.15;100.00;100421.31;5027109;28;20040;-82
2021/12/11 01:30:50;;;;;;;71.57;26.42;;;;;;;0.29;100.00;100433.19;5020169;28;20033;-83
2021/12/11 01:33:16;;;;;;;70.00;26.80;;;;;;;0.33;100.00;100439.72;5029280;28;20536;-81
2021/12/11 01:35:42;;;;;;;55.75;25.77;;;;;;;0.26;99.82;100449.50;5049221;28;20063;-81
2021/12/11 01:38:12;;;;;;;59.75;26.50;;;;;;;0.27;99.99;100455.44;5048329;28;20794;-83
2021/12/11 01:40:38;;;;;;;57.00;26.15;;;;;;;0.23;100.00;100459.91;5054223;28;20040;-81
2021/12/11 01:43:05;;;;;;;57.33;25.92;;;;;;;0.19;100.00;100469.50;5049267;28;20433;-82
2021/12/11 01:45:31;;;;;;;60.30;26.35;;;;;;;0.16;100.00;100476.50;5052972;28;20039;-82
2021/12/11 01:47:57;;;;;;;64.82;27.20;;;;;;;0.27;100.00;100481.75;5037317;28;20029;-81
2021/12/11 01:50:31;;;;;;;79.03;28.38;;;;;;;0.36;100.00;100485.47;5048186;28;20489;-82
2021/12/11 01:53:03;;;;;;;63.92;28.00;;;;;;;0.25;100.00;100491.22;5044870;28;20097;-81
2021/12/11 01:55:36;;;;;;;63.97;27.73;;;;;;;0.29;100.00;100491.88;5045834;28;20045;-82
2021/12/11 01:58:04;;;;;;;63.05;26.42;;;;;;;0.21;100.00;100496.59;5047241;28;20046;-83
2021/12/11 02:00:39;;;;;;;67.50;27.27;;;;;;;0.19;100.00;100496.72;5027418;28;20043;-81
2021/12/11 02:03:13;;;;;;;65.00;28.45;;;;;;;0.32;100.00;100500.13;5014552;28;20072;-80
2021/12/11 02:05:40;;;;;;;76.95;29.17;;;;;;;0.25;100.00;100510.84;5023352;28;20297;-81
2021/12/11 02:08:12;;;;;;;67.63;27.08;;;;;;;0.22;100.00;100526.31;5008031;28;20037;-81
2021/12/11 02:10:39;;;;;;;69.10;29.23;;;;;;;0.25;100.00;100523.59;5022531;28;20672;-81
2021/12/11 02:13:09;;;;;;;67.78;26.67;;;;;;;0.33;100.00;100537.47;5037996;28;20123;-83
2021/12/11 02:15:46;;;;;;;66.38;26.80;;;;;;;0.46;100.00;100534.97;5029805;28;20099;-79
2021/12/11 02:18:22;;;;;;;74.88;28.25;;;;;;;0.41;100.00;100544.63;5025860;28;20029;-81
2021/12/11 02:20:51;;;;;;;66.95;27.92;;;;;;;0.42;100.00;100545.47;5028576;28;20032;-81
2021/12/11 02:23:17;;;;;;;66.43;27.10;;;;;;;0.33;100.00;100544.31;5045493;28;20132;-81
2021/12/11 02:25:47;;;;;;;73.55;27.77;;;;;;;0.32;100.00;100550.31;5046043;28;20124;-81
2021/12/11 02:28:18;;;;;;;72.43;27.67;;;;;;;0.46;100.00;100552.03;5060742;28;20041;-81
2021/12/11 02:31:00;;;;;;;67.93;28.48;;;;;;;0.57;100.00;100554.72;5044304;28;20036;-81
2021/12/11 02:33:35;;;;;;;66.67;27.00;;;;;;;0.39;100.00;100556.69;5033056;28;20036;-81
2021/12/11 02:36:24;;;;;;;61.60;28.10;;;;;;;0.40;100.00;100563.44;5030657;28;20052;-82
2021/12/11 02:38:59;;;;;;;73.85;29.52;;;;;;;0.41;100.00;100564.25;5041391;28;20028;-81
2021/12/11 02:41:33;;;;;;;66.88;28.88;;;;;;;0.39;100.00;100564.34;5046163;28;20081;-82
2021/12/11 02:44:31;;;;;;;67.18;28.08;;;;;;;0.41;100.00;100577.00;5048170;28;20040;-82
2021/12/11 02:47:04;;;;;;;71.18;29.70;;;;;;;0.35;100.00;100578.19;5017962;28;20187;-82
2021/12/11 02:49:43;;;;;;;73.38;28.98;;;;;;;0.41;100.00;100577.00;5046566;28;20029;-82
2021/12/11 02:52:18;;;;;;;70.28;28.30;;;;;;;0.48;100.00;100575.72;5030361;28;20037;-82
2021/12/11 02:54:53;;;;;;;64.32;29.10;;;;;;;0.42;100.00;100586.31;5029916;28;20036;-81
2021/12/11 02:57:29;;;;;;;73.80;31.13;;;;;;;0.50;100.00;100591.75;5024780;28;20037;-81
2021/12/11 02:59:55;;;;;;;82.18;32.22;;;;;;;0.41;100.00;100600.78;5053441;28;20075;-81
2021/12/11 03:02:26;;;;;;;75.97;30.52;;;;;;;0.49;100.00;100606.22;5059621;28;20051;-79
2021/12/11 03:04:55;;;;;;;82.20;32.92;;;;;;;0.48;100.00;100612.25;5060303;28;20040;-81
2021/12/11 03:07:33;;;;;;;79.43;32.33;;;;;;;0.45;100.00;100614.97;5044710;28;20044;-81
2021/12/11 03:09:59;;;;;;;75.55;31.02;;;;;;;0.43;100.00;100614.25;5066193;28;20088;-81
2021/12/11 03:12:25;;;;;;;78.55;32.97;;;;;;;0.34;100.00;100614.81;5039485;28;20086;-81
2021/12/11 03:14:51;;;;;;;70.38;31.38;;;;;;;0.29;100.00;100619.41;5057601;28;20040;-81
2021/12/11 03:17:20;;;;;;;78.35;31.90;;;;;;;0.39;100.00;100618.72;5039507;28;20058;-81
2021/12/11 03:19:46;;;;;;;84.00;33.83;;;;;;;0.38;100.00;100623.94;5055965;28;20137;-81
2021/12/11 03:22:19;;;;;;;81.30;31.77;;;;;;;0.41;100.00;100630.56;5045645;28;20028;-81
2021/12/11 03:24:46;;;;;;;82.13;33.45;;;;;;;0.46;100.00;100626.81;5060156;28;20056;-81
2021/12/11 03:27:13;;;;;;;81.30;33.65;;;;;;;0.45;100.00;100627.72;5033185;28;20103;-82
2021/12/11 03:29:39;;;;;;;83.82;33.28;;;;;;;0.40;100.00;100637.41;5038259;28;20071;-80
2021/12/11 03:32:08;;;;;;;88.68;33.55;;;;;;;0.39;100.00;100643.41;5063366;28;20076;-80
2021/12/11 03:34:34;;;;;;;96.95;34.80;;;;;;;0.45;100.00;100639.66;5041880;28;20032;-80
2021/12/11 03:37:03;;;;;;;90.20;34.70;;;;;;;0.43;100.00;100652.50;5036146;28;20021;-81
2021/12/11 03:39:36;;;;;;;90.30;35.25;;;;;;;0.40;100.00;100652.72;5048544;28;20041;-82
2021/12/11 03:42:07;;;;;;;86.80;33.20;;;;;;;0.41;100.00;100654.34;5049972;28;20051;-79
2021/12/11 03:44:33;;;;;;;91.53;34.78;;;;;;;0.41;100.00;100662.00;5037663;28;20054;-81
2021/12/11 03:47:21;;;;;;;86.85;34.25;;;;;;;0.42;100.00;100662.84;5045003;28;20033;-83
2021/12/11 03:49:47;;;;;;;86.40;32.42;;;;;;;0.39;100.00;100669.75;5045593;28;20458;-81
2021/12/11 03:52:15;;;;;;;83.45;34.30;;;;;;;0.34;100.00;100671.78;5050648;28;20486;-81
2021/12/11 03:54:43;;;;;;;93.43;35.17;;;;;;;0.35;100.00;100683.59;5047003;28;20033;-81
2021/12/11 03:57:11;;;;;;;89.18;33.63;;;;;;;0.42;100.00;100691.72;5046398;28;20079;-81
2021/12/11 03:59:37;;;;;;;101.43;36.38;;;;;;;0.43;100.00;100690.78;5033340;28;20115;-83
2021/12/11 04:02:08;;;;;;;95.78;35.67;;;;;;;0.43;100.00;100698.44;5028938;28;20298;-82
2021/12/11 04:05:02;;;;;;;86.30;34.28;;;;;;;0.43;100.00;100695.09;5044185;28;20040;-81
2021/12/11 04:07:32;;;;;;;84.72;34.67;;;;;;;0.47;100.00;100699.09;5032477;28;20041;-82
2021/12/11 04:09:58;;;;;;;89.80;36.65;;;;;;;0.46;100.00;100715.31;5048372;28;20033;-81
2021/12/11 04:12:26;;;;;;;92.72;36.83;;;;;;;0.41;100.00;100715.56;5049129;28;20406;-81
2021/12/11 04:14:53;;;;;;;94.10;36.15;;;;;;;0.50;100.00;100727.78;5047127;28;20028;-81
2021/12/11 04:17:22;;;;;;;96.88;38.50;;;;;;;0.67;100.00;100728.50;5026749;28;20036;-81
2021/12/11 04:19:51;;;;;;;98.20;37.65;;;;;;;0.60;100.00;100735.69;5030184;28;20040;-81
2021/12/11 04:22:17;;;;;;;99.90;39.15;;;;;;;0.57;100.00;100734.16;5048142;28;20544;-81
2021/12/11 04:24:45;;;;;;;102.65;37.00;;;;;;;0.57;100.00;100741.81;5029971;28;20033;-81
2021/12/11 04:27:13;;;;;;;98.53;37.45;;;;;;;0.51;100.00;100733.69;5044414;28;20044;-81
2021/12/11 04:29:40;;;;;;;113.15;40.25;;;;;;;0.63;100.00;100744.91;5047589;28;20497;-81
2021/12/11 04:32:07;;;;;;;108.97;39.05;;;;;;;0.66;100.00;100739.59;5029898;28;20051;-80
2021/12/11 04:34:34;;;;;;;105.50;39.25;;;;;;;0.60;100.00;100745.91;5041454;28;20036;-81
2021/12/11 04:37:11;;;;;;;108.90;40.65;;;;;;;0.70;100.00;100752.09;5044540;28;20124;-81
2021/12/11 04:39:38;;;;;;;114.82;41.00;;;;;;;0.68;100.00;100750.53;5027729;28;20037;-81
2021/12/11 04:42:17;;;;;;;108.53;39.08;;;;;;;0.71;100.00;100756.28;5028585;28;20496;-82
2021/12/11 04:44:46;;;;;;;117.55;41.20;;;;;;;0.66;100.00;100758.31;5025393;28;20033;-81
2021/12/11 04:47:29;;;;;;;127.35;40.03;;;;;;;0.65;100.00;100753.31;5027483;28;20025;-82
2021/12/11 04:50:01;;;;;;;125.97;40.95;;;;;;;0.65;100.00;100760.97;5059977;28;20312;-82
2021/12/11 04:52:34;;;;;;;105.90;39.08;;;;;;;0.69;100.00;100768.31;5029118;28;20484;-82
2021/12/11 04:58:09;;;;;;;133.82;43.72;;;;;;;0.92;100.00;100773.75;5045017;28;20044;-81
2021/12/11 05:11:11;;;;;;;133.68;42.30;;;;;;;1.00;100.00;100796.28;5047941;28;20072;-82
2021/12/11 05:13:37;;;;;;;138.90;43.40;;;;;;;0.94;100.00;100805.13;5048940;28;20041;-82
2021/12/11 05:16:08;;;;;;;138.90;41.50;;;;;;;0.88;100.00;100803.78;5045822;28;20037;-84
2021/12/11 05:18:36;;;;;;;123.10;41.38;;;;;;;0.91;100.00;100810.44;5048764;28;20037;-82
2021/12/11 05:21:08;;;;;;;143.98;44.33;;;;;;;0.93;100.00;100817.09;5032406;28;20033;-82
2021/12/11 05:23:34;;;;;;;136.25;42.47;;;;;;;0.98;100.00;100816.81;5028260;28;20037;-83
2021/12/11 05:26:00;;;;;;;131.48;40.47;;;;;;;0.95;100.00;100827.22;5034418;28;20044;-82
2021/12/11 05:28:26;;;;;;;142.07;42.10;;;;;;;0.90;100.00;100824.91;5030532;28;20187;-82
2021/12/11 05:30:54;;;;;;;151.90;42.78;;;;;;;0.96;100.00;100832.22;5049517;28;20025;-82
2021/12/11 05:33:21;;;;;;;146.57;42.15;;;;;;;1.18;100.00;100823.25;5032337;28;20033;-83
2021/12/11 05:35:48;;;;;;;142.48;41.70;;;;;;;1.17;100.00;100821.63;5028256;28;20028;-82
2021/12/11 05:38:15;;;;;;;156.02;41.75;;;;;;;1.12;100.00;100837.22;5049137;28;20136;-83
2021/12/11 05:40:46;;;;;;;131.52;38.15;;;;;;;1.04;100.00;100831.75;5031634;28;20257;-82
2021/12/11 05:43:12;;;;;;;135.57;37.92;;;;;;;1.11;100.00;100842.41;5048005;28;20047;-82
2021/12/11 05:45:39;;;;;;;136.82;38.10;;;;;;;1.04;100.00;100836.88;5029249;28;20037;-83
2021/12/11 05:48:06;;;;;;;135.57;39.53;;;;;;;1.09;100.00;100849.34;5051814;28;20024;-83
2021/12/11 05:50:36;;;;;;;131.23;37.75;;;;;;;1.12;100.00;100846.63;5032758;28;20395;-82
2021/12/11 05:53:03;;;;;;;123.13;37.40;;;;;;;1.12;100.00;100849.16;5031057;28;20665;-82
2021/12/11 05:55:31;;;;;;;124.53;38.13;;;;;;;1.21;100.00;100850.34;5047143;28;20041;-82
2021/12/11 05:58:01;;;;;;;121.43;37.20;;;;;;;1.13;100.00;100863.56;5043261;28;20068;-83
2021/12/11 06:00:35;;;;;;;139.68;38.60;;;;;;;1.12;100.00;100862.75;5047775;28;20044;-82
2021/12/11 06:03:03;;;;;;;124.35;36.90;;;;;;;1.07;100.00;100869.06;5048983;28;20033;-83
2021/12/11 06:05:29;;;;;;;129.50;38.58;;;;;;;1.05;100.00;100871.69;5046776;28;20388;-81
2021/12/11 06:07:55;;;;;;;139.23;38.70;;;;;;;1.08;100.00;100876.63;5028799;28;20501;-83
2021/12/11 06:10:22;;;;;;;125.20;36.53;;;;;;;1.00;100.00;100875.44;5049096;28;20584;-83
2021/12/11 06:12:50;;;;;;;118.25;36.40;;;;;;;0.98;100.00;100880.66;5047146;28;20580;-82
2021/12/11 06:15:16;;;;;;;121.90;35.80;;;;;;;0.94;100.00;100881.72;5030315;28;20033;-82
2021/12/11 06:17:42;;;;;;;115.47;36.13;;;;;;;0.92;100.00;100889.50;5035795;28;20483;-82
2021/12/11 06:20:11;;;;;;;123.90;36.17;;;;;;;0.91;100.00;100894.69;5045772;28;20032;-82
2021/12/11 06:22:37;;;;;;;125.53;37.53;;;;;;;0.92;100.00;100904.84;5048246;28;20619;-82
2021/12/11 06:25:12;;;;;;;124.25;37.47;;;;;;;0.91;100.00;100910.03;5046174;28;20029;-82
2021/12/11 06:27:39;;;;;;;127.20;38.47;;;;;;;0.90;100.00;100919.41;5027728;28;20417;-82
2021/12/11 06:30:06;;;;;;;134.10;40.20;;;;;;;0.88;100.00;100918.66;5030423;28;20045;-81
2021/12/11 06:32:32;;;;;;;123.90;37.28;;;;;;;0.86;100.00;100923.03;5046990;28;20041;-81
2021/12/11 06:34:59;;;;;;;118.85;37.65;;;;;;;0.87;100.00;100924.69;5031755;28;20071;-81
2021/12/11 06:37:25;;;;;;;133.00;39.25;;;;;;;0.85;100.00;100933.34;5029890;28;20116;-81
2021/12/11 06:39:52;;;;;;;135.90;39.38;;;;;;;0.85;100.00;100939.28;5045554;28;20124;-81
2021/12/11 06:42:19;;;;;;;134.80;39.95;;;;;;;0.85;100.00;100936.75;5044712;28;20037;-81
2021/12/11 06:44:45;;;;;;;131.35;37.88;;;;;;;0.85;100.00;100943.56;5030572;28;20029;-81
2021/12/11 06:47:13;;;;;;;130.02;39.08;;;;;;;0.85;100.00;100944.41;5030295;28;20361;-81
2021/12/11 06:49:39;;;;;;;147.52;40.75;;;;;;;0.88;100.00;100948.50;5029431;28;20141;-83
2021/12/11 06:52:10;;;;;;;140.75;40.88;;;;;;;0.88;100.00;100949.31;5047861;28;20029;-82
2021/12/11 06:54:36;;;;;;;133.45;40.85;;;;;;;0.90;100.00;100960.25;5028253;28;20134;-81
2021/12/11 06:57:03;;;;;;;144.50;40.63;;;;;;;0.91;100.00;100969.56;5032997;28;20026;-81
2021/12/11 06:59:29;;;;;;;142.38;42.90;;;;;;;0.93;100.00;100960.09;5027083;28;20131;-81
2021/12/11 07:01:55;;;;;;;132.95;39.35;;;;;;;0.94;100.00;100964.28;5028170;28;20136;-81
2021/12/11 07:04:20;;;;;;;148.20;43.10;;;;;;;0.94;100.00;100971.13;5047009;28;20123;-81
2021/12/11 07:06:50;;;;;;;162.40;44.97;;;;;;;1.04;100.00;100979.09;5044880;28;20032;-81
2021/12/11 07:09:17;;;;;;;176.77;50.78;;;;;;;1.04;100.00;100979.91;5028401;28;20667;-81
2021/12/11 07:11:44;;;;;;;166.27;46.17;;;;;;;1.02;100.00;100983.44;5029264;28;20037;-82
2021/12/11 07:14:12;;;;;;;162.23;41.38;;;;;;;1.07;100.00;100991.66;5036515;28;20426;-81
2021/12/11 07:16:38;;;;;;;159.70;42.08;;;;;;;1.10;100.00;100994.03;5041176;28;20040;-81
2021/12/11 07:19:06;;;;;;;149.57;41.25;;;;;;;1.07;100.00;100994.22;5034971;28;20028;-81
2021/12/11 07:21:31;;;;;;;177.32;46.72;;;;;;;1.13;100.00;100999.78;5034128;28;20051;-81
2021/12/11 07:23:57;;;;;;;160.30;42.15;;;;;;;1.15;100.00;100997.16;5038678;28;20418;-81
2021/12/11 07:26:31;;;;;;;166.23;41.58;;;;;;;1.14;100.00;101003.97;5058528;28;20036;-81
2021/12/11 07:29:02;;;;;;;177.00;45.22;;;;;;;1.24;100.00;101006.81;5035050;28;20033;-81
2021/12/11 07:31:28;;;;;;;178.35;44.60;;;;;;;1.30;100.00;101013.28;5049430;28;20091;-81
2021/12/11 07:33:55;;;;;;;181.23;44.27;;;;;;;1.31;100.00;101020.88;5004335;28;1129500;-81
2021/12/11 07:36:21;;;;;;;189.57;44.90;;;;;;;1.33;100.00;101023.34;5047162;28;20029;-81
2021/12/11 07:38:47;;;;;;;176.25;43.08;;;;;;;1.43;100.00;101024.44;5056191;28;20045;-81
2021/12/11 07:41:14;;;;;;;180.63;43.55;;;;;;;1.41;100.00;101038.22;5032248;28;20037;-81
2021/12/11 07:43:41;;;;;;;165.68;42.42;;;;;;;1.39;100.00;101030.63;5058852;28;20037;-81
2021/12/11 07:46:13;;;;;;;190.73;47.65;;;;;;;1.46;100.00;101039.59;5041327;28;20025;-82
2021/12/11 07:48:38;;;;;;;168.05;42.67;;;;;;;1.44;100.00;101046.53;5041586;28;20036;-81
2021/12/11 07:51:04;;;;;;;144.95;39.55;;;;;;;1.40;100.00;101055.28;5035916;28;20160;-81
2021/12/11 07:53:30;;;;;;;183.93;47.88;;;;;;;1.44;100.00;101043.97;5050564;28;20094;-80
2021/12/11 07:55:56;;;;;;;184.35;46.78;;;;;;;1.44;100.00;101054.19;5041537;28;20049;-80
2021/12/11 07:58:21;;;;;;;182.55;41.47;;;;;;;1.51;100.00;101047.81;5038290;28;20035;-81
2021/12/11 08:00:48;;;;;;;178.63;42.85;;;;;;;1.60;100.00;101060.94;5037088;28;20033;-81
2021/12/11 08:03:16;;;;;;;176.75;41.60;;;;;;;1.56;100.00;101060.31;5054840;28;20043;-81
2021/12/11 08:05:46;;;;;;;164.85;38.40;;;;;;;1.57;100.00;101063.69;5036005;28;20040;-81
2021/12/11 08:08:11;;;;;;;182.85;40.70;;;;;;;1.63;100.00;101061.59;5058714;28;20482;-82
2021/12/11 08:10:41;;;;;;;171.15;40.55;;;;;;;1.69;100.00;101068.88;5040536;28;20124;-81
2021/12/11 08:13:08;;;;;;;196.32;44.78;;;;;;;1.73;100.00;101077.19;5050535;28;20537;-81
2021/12/11 08:15:34;;;;;;;173.48;42.15;;;;;;;1.73;100.00;101083.16;5055137;28;20477;-81
2021/12/11 08:18:00;;;;;;;199.00;44.30;;;;;;;1.77;100.00;101081.19;5071635;28;20473;-82
2021/12/11 08:20:30;;;;;;;170.98;40.63;;;;;;;1.84;100.00;101087.59;5055915;28;20055;-82
2021/12/11 08:22:57;;;;;;;165.88;41.40;;;;;;;1.88;100.00;101093.34;5054244;28;20037;-81
2021/12/11 08:25:26;;;;;;;181.20;45.03;;;;;;;1.92;100.00;101093.09;5033416;28;20037;-82
2021/12/11 08:27:53;;;;;;;176.65;42.55;;;;;;;1.90;100.00;101106.88;5052805;28;20052;-82
2021/12/11 08:30:19;;;;;;;170.63;39.65;;;;;;;1.88;100.00;101108.69;5040128;28;20025;-82
2021/12/11 08:32:44;;;;;;;160.63;40.25;;;;;;;1.87;100.00;101107.06;5057142;28;20325;-83
2021/12/11 08:35:12;;;;;;;155.38;38.08;;;;;;;1.85;100.00;101108.91;5037615;28;20017;-83
2021/12/11 08:37:45;;;;;;;150.07;38.67;;;;;;;1.87;100.00;101117.31;5053843;28;20037;-82
2021/12/11 08:40:14;;;;;;;148.85;39.85;;;;;;;1.93;100.00;101119.47;5055382;28;20032;-83
2021/12/11 08:42:40;;;;;;;152.27;37.58;;;;;;;1.97;100.00;101122.69;5036426;28;20029;-81
2021/12/11 08:45:10;;;;;;;162.30;40.67;;;;;;;1.95;100.00;101125.31;5051620;28;20049;-82
2021/12/11 08:47:40;;;;;;;164.38;40.65;;;;;;;2.03;100.00;101125.66;5052351;28;20389;-82
2021/12/11 08:50:10;;;;;;;152.75;40.10;;;;;;;2.12;100.00;101130.22;5052942;28;20028;-83
2021/12/11 08:52:39;;;;;;;147.88;37.88;;;;;;;2.17;100.00;101119.75;5048483;28;20041;-82
2021/12/11 08:55:09;;;;;;;144.57;37.83;;;;;;;2.12;100.00;101125.13;5033529;28;20041;-81
2021/12/11 08:57:39;;;;;;;138.75;34.03;;;;;;;2.10;100.00;101128.69;5045525;28;20037;-82
2021/12/11 09:00:19;;;;;;;148.40;37.63;;;;;;;2.11;100.00;101131.16;5037977;28;20469;-82
2021/12/11 09:02:51;;;;;;;141.20;38.42;;;;;;;2.14;100.00;101128.41;5050420;28;20029;-83
2021/12/11 09:05:25;;;;;;;141.57;38.75;;;;;;;2.24;100.00;101122.72;5052643;28;20044;-82
2021/12/11 09:07:57;;;;;;;146.23;36.90;;;;;;;2.15;100.00;101136.94;5051763;28;20097;-82
2021/12/11 09:10:51;;;;;;;125.05;34.95;;;;;;;2.11;100.00;101138.00;5051635;28;20160;-81
2021/12/11 09:13:41;;;;;;;127.90;34.45;;;;;;;2.17;100.00;101142.78;5046070;28;20127;-81
2021/12/11 09:16:21;;;;;;;146.60;38.03;;;;;;;2.24;100.00;101146.59;5023787;28;20041;-82
2021/12/11 09:18:51;;;;;;;143.70;40.33;;;;;;;2.33;100.00;101146.00;5053239;28;20064;-82
2021/12/11 09:21:25;;;;;;;132.18;34.67;;;;;;;2.31;100.00;101155.53;5036008;28;20125;-82
2021/12/11 09:24:04;;;;;;;126.40;37.75;;;;;;;2.37;100.00;101148.41;5053156;28;20037;-81
2021/12/11 09:26:36;;;;;;;111.00;34.13;;;;;;;2.40;100.00;101155.91;5036904;28;20029;-81
2021/12/11 09:29:12;;;;;;;120.18;36.38;;;;;;;2.35;100.00;101163.84;5036985;28;20443;-81
2021/12/11 09:32:18;;;;;;;116.38;34.25;;;;;;;2.50;100.00;101165.47;5041955;28;20407;-81
2021/12/11 09:34:56;;;;;;;132.93;42.35;;;;;;;2.60;100.00;101162.31;5026229;28;20111;-81
2021/12/11 09:37:22;;;;;;;117.10;36.00;;;;;;;2.49;100.00;101165.56;5056321;28;20037;-80
2021/12/11 09:39:52;;;;;;;111.28;31.77;;;;;;;2.55;100.00;101166.94;5052275;28;20052;-82
2021/12/11 09:42:18;;;;;;;103.75;32.17;;;;;;;2.67;100.00;101166.97;5053976;28;20033;-81
2021/12/11 09:44:52;;;;;;;102.30;34.33;;;;;;;2.72;100.00;101175.19;5034991;28;20194;-81
2021/12/11 09:47:22;;;;;;;101.97;33.42;;;;;;;2.78;100.00;101173.19;5032975;28;20037;-81
2021/12/11 09:49:56;;;;;;;97.15;33.03;;;;;;;2.84;100.00;101171.03;5038967;28;20030;-81
2021/12/11 09:52:24;;;;;;;103.95;36.80;;;;;;;2.94;100.00;101179.00;5050744;28;20053;-80
2021/12/11 09:54:59;;;;;;;92.82;31.58;;;;;;;2.96;100.00;101177.16;5038246;28;20029;-81
2021/12/11 09:57:30;;;;;;;85.50;31.60;;;;;;;2.99;100.00;101176.13;5034235;28;20037;-82
2021/12/11 10:00:00;;;;;;;79.30;29.15;;;;;;;2.99;100.00;101173.56;5038353;28;20128;-82
2021/12/11 10:02:30;;;;;;;88.38;34.33;;;;;;;3.05;100.00;101180.84;5053556;28;20040;-80
2021/12/11 10:05:29;;;;;;;82.22;29.23;;;;;;;3.05;100.00;101189.38;5037947;28;20032;-81
2021/12/11 10:10:55;;;;;;;88.70;29.42;;;;;;;3.15;100.00;101192.16;5050477;28;20044;-81
2021/12/11 10:13:20;;;;;;;81.40;30.77;;;;;;;3.34;100.00;101188.44;5033476;28;20040;-80
2021/12/11 10:15:46;;;;;;;82.63;31.25;;;;;;;3.24;100.00;101188.16;5035290;28;20056;-83
2021/12/11 10:18:18;;;;;;;85.03;29.98;;;;;;;3.20;100.00;101192.69;5044322;28;20157;-80
2021/12/11 10:20:49;;;;;;;81.43;29.63;;;;;;;3.36;100.00;101189.97;5042180;28;20144;-80
2021/12/11 10:23:19;;;;;;;86.97;31.88;;;;;;;3.44;100.00;101192.84;5036262;28;20561;-81
2021/12/11 10:25:47;;;;;;;78.35;29.98;;;;;;;3.49;100.00;101198.50;5049949;28;20398;-80
2021/12/11 10:28:18;;;;;;;75.45;29.33;;;;;;;3.51;100.00;101196.66;5033552;28;20776;-81
2021/12/11 10:30:50;;;;;;;76.07;28.20;;;;;;;3.71;100.00;101207.31;5051317;28;20154;-81
2021/12/11 10:33:19;;;;;;;78.50;30.27;;;;;;;3.67;100.00;101208.47;5035789;28;20452;-81
2021/12/11 10:35:50;;;;;;;68.47;27.55;;;;;;;3.62;100.00;101203.66;5050364;28;20305;-81
2021/12/11 10:38:16;;;;;;;67.38;28.40;;;;;;;3.83;100.00;101210.84;5043187;28;20520;-81
2021/12/11 10:40:50;;;;;;;73.65;28.40;;;;;;;3.83;100.00;101210.84;5039076;28;20037;-82
2021/12/11 10:43:30;;;;;;;70.88;27.92;;;;;;;3.85;100.00;101209.81;5043720;28;20071;-81
2021/12/11 10:45:58;;;;;;;65.93;27.60;;;;;;;4.05;100.00;101208.47;5049665;28;20586;-81
2021/12/11 10:48:28;;;;;;;72.93;26.75;;;;;;;4.05;100.00;101213.63;5030188;28;20025;-80
2021/12/11 10:51:21;;;;;;;56.13;22.58;;;;;;;4.02;100.00;101211.25;5047002;28;20088;-81
2021/12/11 10:53:48;;;;;;;49.17;21.58;;;;;;;4.04;100.00;101219.66;5040865;28;20073;-81
2021/12/11 10:56:17;;;;;;;55.95;24.40;;;;;;;4.05;100.00;101217.91;5045999;28;20474;-81
2021/12/11 10:58:47;;;;;;;60.58;25.52;;;;;;;3.98;100.00;101227.78;5049621;28;20545;-82
2021/12/11 11:01:18;;;;;;;48.00;22.17;;;;;;;4.01;100.00;101221.59;5033147;28;20045;-80
2021/12/11 11:03:48;;;;;;;49.85;16.98;;;;;;;4.19;100.00;101224.69;5054352;28;20044;-78
2021/12/11 11:06:14;;;;;;;47.42;15.48;;;;;;;4.19;100.00;101230.63;5046757;28;20041;-81
2021/12/11 11:08:41;;;;;;;36.45;14.05;;;;;;;4.29;100.00;101228.25;5046940;28;20086;-80
2021/12/11 11:11:12;;;;;;;30.63;13.45;;;;;;;4.31;100.00;101226.41;5039466;28;20166;-81
2021/12/11 11:13:40;;;;;;;34.55;13.45;;;;;;;4.38;99.97;101235.34;5030260;28;20037;-81
2021/12/11 11:16:06;;;;;;;34.70;11.95;;;;;;;4.39;99.65;101249.00;5031464;28;20037;-82
2021/12/11 11:18:32;;;;;;;23.90;10.70;;;;;;;4.31;99.66;101253.84;5053167;28;20040;-81
2021/12/11 11:21:12;;;;;;;28.75;10.60;;;;;;;4.34;99.95;101246.75;5047524;28;20029;-82
2021/12/11 11:23:41;;;;;;;31.17;10.90;;;;;;;4.37;99.31;101254.25;5056420;28;20033;-82
2021/12/11 11:26:13;;;;;;;32.67;11.73;;;;;;;4.40;99.30;101258.34;5034668;28;20128;-81
2021/12/11 11:28:39;;;;;;;28.17;11.93;;;;;;;4.41;99.15;101262.56;5056008;28;20076;-81
2021/12/11 11:31:09;;;;;;;28.63;10.55;;;;;;;4.42;99.17;101265.03;5035736;28;20120;-81
2021/12/11 11:33:37;;;;;;;35.60;11.45;;;;;;;4.46;99.46;101269.03;5039515;28;20131;-81
2021/12/11 11:36:19;;;;;;;32.92;11.05;;;;;;;4.57;99.22;101277.75;5038434;28;20054;-82
2021/12/11 11:38:50;;;;;;;22.38;9.48;;;;;;;4.63;98.18;101273.03;5058287;28;20029;-81
2021/12/11 11:41:24;;;;;;;26.10;9.10;;;;;;;4.75;97.18;101278.25;5032458;28;20045;-81